This is the latest recevied weather packets stored in our database for station/object OK1JRA-6. If no packets are shown the sender has not sent any weather packets the latest 10 day(s).
| Time | Temp. | Humidity | Pressure | Rain* | Wind** | Luminosity | Snow |
|---|---|---|---|---|---|---|---|
| 1777471793 | 23.89° C | 15% | 1025 hPa | 0 mm | - | - | - |
| 1777471793 | 23.89° C | 15% | 1025 hPa | 0 mm | - | - | - |
| 1777471490 | 24.44° C | 13% | 1024.8 hPa | 0 mm | - | - | - |
| 1777471490 | 24.44° C | 13% | 1024.8 hPa | 0 mm | - | - | - |
| 1777471487 | 24.44° C | 13% | 1024.8 hPa | 0 mm | - | - | - |
| 1777471487 | 24.44° C | 13% | 1024.8 hPa | 0 mm | - | - | - |
| 1777471184 | 24.44° C | 14% | 1024.9 hPa | 0 mm | - | - | - |
| 1777471184 | 24.44° C | 14% | 1024.9 hPa | 0 mm | - | - | - |
| 1777471180 | 24.44° C | 14% | 1024.9 hPa | 0 mm | - | - | - |
| 1777471180 | 24.44° C | 14% | 1024.9 hPa | 0 mm | - | - | - |
| 1777470878 | 24.44° C | 14% | 1024.9 hPa | 0 mm | - | - | - |
| 1777470878 | 24.44° C | 14% | 1024.9 hPa | 0 mm | - | - | - |
| 1777470874 | 24.44° C | 14% | 1024.9 hPa | 0 mm | - | - | - |
| 1777470874 | 24.44° C | 14% | 1024.9 hPa | 0 mm | - | - | - |
| 1777470568 | 25° C | 13% | 1024.8 hPa | 0 mm | - | - | - |
| 1777470568 | 25° C | 13% | 1024.8 hPa | 0 mm | - | - | - |
| 1777470265 | 25.56° C | 13% | 1024.8 hPa | 0 mm | - | - | - |
| 1777470265 | 25.56° C | 13% | 1024.8 hPa | 0 mm | - | - | - |
| 1777470265 | 25.56° C | 13% | 1024.8 hPa | 0 mm | - | - | - |
| 1777470262 | 25.56° C | 13% | 1024.8 hPa | 0 mm | - | - | - |
| 1777469956 | 26.67° C | 12% | 1024.7 hPa | 0 mm | - | - | - |
| 1777469653 | 27.22° C | 13% | 1024.8 hPa | 0 mm | - | - | - |
| 1777469653 | 27.22° C | 13% | 1024.8 hPa | 0 mm | - | - | - |
| 1777469649 | 27.22° C | 13% | 1024.8 hPa | 0 mm | - | - | - |
| 1777469347 | 28.33° C | 12% | 1024.7 hPa | 0 mm | - | - | - |
* Rain latest hour (hover to see other rain measurements)
** Current wind speed in m/s (hover to see current wind gust speed)